sensor_id;sensor_type;location;lat;lon;timestamp;pressure;altitude;pressure_sealevel;temperature;humidity
77047;BME280;65977;56.380;44.022;2023-04-21T00:00:05;100745.25;;;10.55;36.80
77047;BME280;65977;56.380;44.022;2023-04-21T00:02:35;100747.41;;;10.50;36.72
77047;BME280;65977;56.380;44.022;2023-04-21T00:05:08;100744.31;;;10.45;36.73
77047;BME280;65977;56.380;44.022;2023-04-21T00:07:36;100742.19;;;10.39;36.88
77047;BME280;65977;56.380;44.022;2023-04-21T00:10:06;100741.03;;;10.32;37.18
77047;BME280;65977;56.380;44.022;2023-04-21T00:12:33;100750.84;;;10.30;37.28
77047;BME280;65977;56.380;44.022;2023-04-21T00:15:01;100739.97;;;10.24;37.19
77047;BME280;65977;56.380;44.022;2023-04-21T00:17:31;100745.81;;;10.27;37.04
77047;BME280;65977;56.380;44.022;2023-04-21T00:19:59;100737.19;;;10.25;37.10
77047;BME280;65977;56.380;44.022;2023-04-21T00:22:26;100740.91;;;10.23;37.20
77047;BME280;65977;56.380;44.022;2023-04-21T00:24:53;100748.84;;;10.23;37.23
77047;BME280;65977;56.380;44.022;2023-04-21T00:27:20;100750.75;;;10.21;37.21
77047;BME280;65977;56.380;44.022;2023-04-21T00:29:47;100751.72;;;10.20;37.28
77047;BME280;65977;56.380;44.022;2023-04-21T00:32:15;100741.28;;;10.18;37.14
77047;BME280;65977;56.380;44.022;2023-04-21T00:34:42;100736.38;;;10.13;37.30
77047;BME280;65977;56.380;44.022;2023-04-21T00:37:09;100736.16;;;10.17;37.35
77047;BME280;65977;56.380;44.022;2023-04-21T00:39:36;100741.53;;;10.15;37.64
77047;BME280;65977;56.380;44.022;2023-04-21T00:42:03;100728.47;;;10.13;37.81
77047;BME280;65977;56.380;44.022;2023-04-21T00:44:30;100734.91;;;10.09;38.03
77047;BME280;65977;56.380;44.022;2023-04-21T00:46:58;100730.84;;;10.05;38.33
77047;BME280;65977;56.380;44.022;2023-04-21T00:49:25;100728.59;;;10.01;38.43
77047;BME280;65977;56.380;44.022;2023-04-21T00:51:52;100724.50;;;9.97;38.56
77047;BME280;65977;56.380;44.022;2023-04-21T00:54:23;100726.81;;;9.90;38.81
77047;BME280;65977;56.380;44.022;2023-04-21T00:56:51;100720.91;;;9.87;38.78
77047;BME280;65977;56.380;44.022;2023-04-21T00:59:20;100718.78;;;9.81;38.84
77047;BME280;65977;56.380;44.022;2023-04-21T01:01:47;100716.75;;;9.73;39.15
77047;BME280;65977;56.380;44.022;2023-04-21T01:04:14;100725.00;;;9.69;39.00
77047;BME280;65977;56.380;44.022;2023-04-21T01:06:42;100712.44;;;9.61;39.29
77047;BME280;65977;56.380;44.022;2023-04-21T01:09:09;100709.44;;;9.54;39.34
77047;BME280;65977;56.380;44.022;2023-04-21T01:11:38;100707.41;;;9.47;39.38
77047;BME280;65977;56.380;44.022;2023-04-21T01:14:06;100715.78;;;9.41;39.31
77047;BME280;65977;56.380;44.022;2023-04-21T01:16:33;100720.59;;;9.36;39.59
77047;BME280;65977;56.380;44.022;2023-04-21T01:19:00;100712.69;;;9.25;39.56
77047;BME280;65977;56.380;44.022;2023-04-21T01:21:28;100717.34;;;9.21;39.82
77047;BME280;65977;56.380;44.022;2023-04-21T01:23:57;100718.78;;;9.14;39.87
77047;BME280;65977;56.380;44.022;2023-04-21T01:26:24;100714.09;;;9.07;40.11
77047;BME280;65977;56.380;44.022;2023-04-21T01:28:55;100705.94;;;8.99;40.41
77047;BME280;65977;56.380;44.022;2023-04-21T01:31:23;100705.59;;;8.92;40.30
77047;BME280;65977;56.380;44.022;2023-04-21T01:33:50;100713.59;;;8.90;40.14
77047;BME280;65977;56.380;44.022;2023-04-21T01:36:17;100713.94;;;8.86;40.32
77047;BME280;65977;56.380;44.022;2023-04-21T01:38:44;100704.69;;;8.80;40.51
77047;BME280;65977;56.380;44.022;2023-04-21T01:41:11;100708.31;;;8.79;40.67
77047;BME280;65977;56.380;44.022;2023-04-21T01:43:38;100708.53;;;8.76;40.70
77047;BME280;65977;56.380;44.022;2023-04-21T01:46:06;100720.25;;;8.72;40.98
77047;BME280;65977;56.380;44.022;2023-04-21T01:48:33;100721.22;;;8.71;41.21
77047;BME280;65977;56.380;44.022;2023-04-21T01:51:02;100717.47;;;8.63;41.85
77047;BME280;65977;56.380;44.022;2023-04-21T01:53:29;100724.53;;;8.62;42.16
77047;BME280;65977;56.380;44.022;2023-04-21T01:55:56;100715.06;;;8.60;42.79
77047;BME280;65977;56.380;44.022;2023-04-21T01:58:23;100713.50;;;8.57;42.99
77047;BME280;65977;56.380;44.022;2023-04-21T02:00:50;100717.09;;;8.56;43.15
77047;BME280;65977;56.380;44.022;2023-04-21T02:03:17;100713.63;;;8.56;43.19
77047;BME280;65977;56.380;44.022;2023-04-21T02:05:45;100710.75;;;8.59;43.16
77047;BME280;65977;56.380;44.022;2023-04-21T02:08:12;100709.78;;;8.60;43.09
77047;BME280;65977;56.380;44.022;2023-04-21T02:10:39;100712.31;;;8.61;43.03
77047;BME280;65977;56.380;44.022;2023-04-21T02:13:06;100707.78;;;8.63;42.79
77047;BME280;65977;56.380;44.022;2023-04-21T02:15:33;100715.31;;;8.68;42.98
77047;BME280;65977;56.380;44.022;2023-04-21T02:18:01;100711.63;;;8.70;42.96
77047;BME280;65977;56.380;44.022;2023-04-21T02:20:28;100706.25;;;8.72;42.77
77047;BME280;65977;56.380;44.022;2023-04-21T02:22:55;100707.69;;;8.76;42.97
77047;BME280;65977;56.380;44.022;2023-04-21T02:25:23;100694.16;;;8.80;42.94
77047;BME280;65977;56.380;44.022;2023-04-21T02:27:50;100705.91;;;8.87;43.10
77047;BME280;65977;56.380;44.022;2023-04-21T02:30:17;100708.22;;;8.92;42.83
77047;BME280;65977;56.380;44.022;2023-04-21T02:32:44;100705.09;;;8.98;42.59
77047;BME280;65977;56.380;44.022;2023-04-21T02:35:11;100711.56;;;9.05;42.82
77047;BME280;65977;56.380;44.022;2023-04-21T02:37:38;100714.69;;;9.10;42.80
77047;BME280;65977;56.380;44.022;2023-04-21T02:40:05;100708.59;;;9.21;42.69
77047;BME280;65977;56.380;44.022;2023-04-21T02:42:33;100702.84;;;9.27;42.50
77047;BME280;65977;56.380;44.022;2023-04-21T02:45:00;100703.94;;;9.35;42.28
77047;BME280;65977;56.380;44.022;2023-04-21T02:47:30;100705.00;;;9.44;42.11
77047;BME280;65977;56.380;44.022;2023-04-21T02:49:57;100709.56;;;9.53;42.10
77047;BME280;65977;56.380;44.022;2023-04-21T02:52:24;100696.50;;;9.63;42.11
77047;BME280;65977;56.380;44.022;2023-04-21T02:54:51;100701.03;;;9.72;41.92
77047;BME280;65977;56.380;44.022;2023-04-21T02:57:18;100701.03;;;9.83;42.03
77047;BME280;65977;56.380;44.022;2023-04-21T02:59:45;100695.13;;;9.90;42.02
77047;BME280;65977;56.380;44.022;2023-04-21T03:02:12;100699.41;;;10.02;42.06
77047;BME280;65977;56.380;44.022;2023-04-21T03:04:39;100695.78;;;10.14;41.87
77047;BME280;65977;56.380;44.022;2023-04-21T03:07:11;100699.25;;;10.26;41.83
77047;BME280;65977;56.380;44.022;2023-04-21T03:09:39;100698.13;;;10.40;41.80
77047;BME280;65977;56.380;44.022;2023-04-21T03:12:06;100702.50;;;10.50;41.46
77047;BME280;65977;56.380;44.022;2023-04-21T03:14:33;100694.72;;;10.69;41.26
77047;BME280;65977;56.380;44.022;2023-04-21T03:17:01;100694.53;;;10.82;41.12
77047;BME280;65977;56.380;44.022;2023-04-21T03:19:28;100697.44;;;11.00;40.98
77047;BME280;65977;56.380;44.022;2023-04-21T03:21:55;100694.56;;;11.12;41.10
77047;BME280;65977;56.380;44.022;2023-04-21T03:24:22;100689.66;;;11.28;41.01
77047;BME280;65977;56.380;44.022;2023-04-21T03:26:49;100691.94;;;11.42;41.02
77047;BME280;65977;56.380;44.022;2023-04-21T03:29:16;100690.19;;;11.62;40.88
77047;BME280;65977;56.380;44.022;2023-04-21T03:31:44;100699.34;;;11.79;40.74
77047;BME280;65977;56.380;44.022;2023-04-21T03:34:11;100691.69;;;11.95;41.11
77047;BME280;65977;56.380;44.022;2023-04-21T03:36:38;100693.13;;;12.09;40.57
77047;BME280;65977;56.380;44.022;2023-04-21T03:39:06;100685.47;;;12.25;40.57
77047;BME280;65977;56.380;44.022;2023-04-21T03:41:45;100693.56;;;12.42;39.90
77047;BME280;65977;56.380;44.022;2023-04-21T03:44:12;100689.25;;;12.60;39.95
77047;BME280;65977;56.380;44.022;2023-04-21T03:46:39;100684.47;;;12.83;39.74
77047;BME280;65977;56.380;44.022;2023-04-21T03:49:07;100677.44;;;13.01;39.34
77047;BME280;65977;56.380;44.022;2023-04-21T03:51:34;100683.13;;;13.25;38.92
77047;BME280;65977;56.380;44.022;2023-04-21T03:54:01;100673.41;;;13.44;38.36
77047;BME280;65977;56.380;44.022;2023-04-21T03:56:28;100681.81;;;13.66;38.20
77047;BME280;65977;56.380;44.022;2023-04-21T03:58:55;100680.28;;;13.91;37.71
77047;BME280;65977;56.380;44.022;2023-04-21T04:01:22;100677.22;;;14.13;37.12
77047;BME280;65977;56.380;44.022;2023-04-21T04:03:49;100674.97;;;14.36;36.52
77047;BME280;65977;56.380;44.022;2023-04-21T04:06:17;100666.66;;;14.57;36.26
77047;BME280;65977;56.380;44.022;2023-04-21T04:08:44;100668.81;;;14.79;35.41
77047;BME280;65977;56.380;44.022;2023-04-21T04:11:12;100660.19;;;15.02;34.93
77047;BME280;65977;56.380;44.022;2023-04-21T04:13:39;100665.63;;;15.27;34.32
77047;BME280;65977;56.380;44.022;2023-04-21T04:16:06;100666.78;;;15.50;34.58
77047;BME280;65977;56.380;44.022;2023-04-21T04:18:33;100667.88;;;15.73;34.23
77047;BME280;65977;56.380;44.022;2023-04-21T04:21:07;100670.59;;;15.97;33.87
77047;BME280;65977;56.380;44.022;2023-04-21T04:23:34;100669.47;;;16.24;33.26
77047;BME280;65977;56.380;44.022;2023-04-21T04:26:01;100665.69;;;16.59;32.67
77047;BME280;65977;56.380;44.022;2023-04-21T04:28:31;100658.59;;;17.14;32.14
77047;BME280;65977;56.380;44.022;2023-04-21T04:30:58;100648.97;;;18.13;30.76
77047;BME280;65977;56.380;44.022;2023-04-21T04:33:26;100647.34;;;20.95;26.75
77047;BME280;65977;56.380;44.022;2023-04-21T04:35:53;100635.09;;;24.84;22.05
77047;BME280;65977;56.380;44.022;2023-04-21T04:38:20;100636.53;;;28.44;17.84
77047;BME280;65977;56.380;44.022;2023-04-21T04:40:55;100640.09;;;31.67;14.43
77047;BME280;65977;56.380;44.022;2023-04-21T04:43:23;100644.41;;;34.28;12.43
77047;BME280;65977;56.380;44.022;2023-04-21T04:45:51;100641.59;;;36.52;10.12
77047;BME280;65977;56.380;44.022;2023-04-21T04:48:18;100642.22;;;38.39;9.35
77047;BME280;65977;56.380;44.022;2023-04-21T04:50:45;100644.94;;;40.02;8.05
77047;BME280;65977;56.380;44.022;2023-04-21T04:53:12;100650.47;;;41.34;7.06
77047;BME280;65977;56.380;44.022;2023-04-21T04:55:39;100640.19;;;42.46;6.91
77047;BME280;65977;56.380;44.022;2023-04-21T04:58:06;100630.06;;;43.56;5.75
77047;BME280;65977;56.380;44.022;2023-04-21T05:00:34;100645.50;;;44.57;5.07
77047;BME280;65977;56.380;44.022;2023-04-21T05:03:03;100636.28;;;45.47;4.60
77047;BME280;65977;56.380;44.022;2023-04-21T05:05:30;100638.78;;;46.21;4.33
77047;BME280;65977;56.380;44.022;2023-04-21T05:07:57;100639.66;;;46.86;3.67
77047;BME280;65977;56.380;44.022;2023-04-21T05:10:25;100629.00;;;47.41;3.69
77047;BME280;65977;56.380;44.022;2023-04-21T05:12:52;100627.72;;;47.87;3.95
77047;BME280;65977;56.380;44.022;2023-04-21T05:15:19;100630.16;;;48.22;3.23
77047;BME280;65977;56.380;44.022;2023-04-21T05:17:46;100636.22;;;48.61;3.17
77047;BME280;65977;56.380;44.022;2023-04-21T05:20:13;100625.34;;;48.96;2.87
77047;BME280;65977;56.380;44.022;2023-04-21T05:22:40;100624.44;;;49.29;2.44
77047;BME280;65977;56.380;44.022;2023-04-21T05:25:09;100624.22;;;49.59;2.76
77047;BME280;65977;56.380;44.022;2023-04-21T05:27:38;100619.16;;;49.89;2.46
77047;BME280;65977;56.380;44.022;2023-04-21T05:30:05;100625.31;;;50.12;2.31
77047;BME280;65977;56.380;44.022;2023-04-21T05:32:32;100630.22;;;50.40;2.27
77047;BME280;65977;56.380;44.022;2023-04-21T05:35:00;100617.84;;;50.66;2.53
77047;BME280;65977;56.380;44.022;2023-04-21T05:37:30;100620.69;;;50.97;1.83
77047;BME280;65977;56.380;44.022;2023-04-21T05:39:57;100620.28;;;51.20;1.96
77047;BME280;65977;56.380;44.022;2023-04-21T05:42:24;100615.41;;;51.45;1.33
77047;BME280;65977;56.380;44.022;2023-04-21T05:44:52;100606.56;;;51.64;1.23
77047;BME280;65977;56.380;44.022;2023-04-21T05:47:19;100608.06;;;51.83;1.28
77047;BME280;65977;56.380;44.022;2023-04-21T05:49:50;100605.16;;;52.08;1.08
77047;BME280;65977;56.380;44.022;2023-04-21T05:52:19;100607.94;;;52.25;1.28
77047;BME280;65977;56.380;44.022;2023-04-21T05:54:47;100603.47;;;52.24;1.33
77047;BME280;65977;56.380;44.022;2023-04-21T05:57:14;100608.25;;;52.34;0.88
77047;BME280;65977;56.380;44.022;2023-04-21T05:59:42;100597.66;;;52.53;0.84
77047;BME280;65977;56.380;44.022;2023-04-21T06:02:10;100608.44;;;52.68;1.05
77047;BME280;65977;56.380;44.022;2023-04-21T06:04:37;100595.81;;;52.80;1.21
77047;BME280;65977;56.380;44.022;2023-04-21T06:07:06;100603.38;;;52.97;0.83
77047;BME280;65977;56.380;44.022;2023-04-21T06:09:34;100596.03;;;53.07;0.49
77047;BME280;65977;56.380;44.022;2023-04-21T06:12:02;100581.47;;;53.08;0.34
77047;BME280;65977;56.380;44.022;2023-04-21T06:14:29;100597.38;;;53.32;0.96
77047;BME280;65977;56.380;44.022;2023-04-21T06:16:57;100598.84;;;53.47;0.53
77047;BME280;65977;56.380;44.022;2023-04-21T06:19:24;100594.41;;;53.46;0.73
77047;BME280;65977;56.380;44.022;2023-04-21T06:21:51;100586.59;;;53.20;0.15
77047;BME280;65977;56.380;44.022;2023-04-21T06:24:18;100589.06;;;53.15;0.00
77047;BME280;65977;56.380;44.022;2023-04-21T06:26:51;100588.97;;;53.29;0.06
77047;BME280;65977;56.380;44.022;2023-04-21T06:29:19;100591.13;;;53.51;0.24
77047;BME280;65977;56.380;44.022;2023-04-21T06:31:46;100585.53;;;53.78;0.33
77047;BME280;65977;56.380;44.022;2023-04-21T06:34:14;100587.13;;;54.13;0.21
77047;BME280;65977;56.380;44.022;2023-04-21T06:36:41;100584.19;;;54.47;0.00
77047;BME280;65977;56.380;44.022;2023-04-21T06:39:09;100589.41;;;54.75;0.00
77047;BME280;65977;56.380;44.022;2023-04-21T06:41:36;100587.22;;;55.09;0.00
77047;BME280;65977;56.380;44.022;2023-04-21T06:44:03;100575.06;;;55.32;0.00
77047;BME280;65977;56.380;44.022;2023-04-21T06:46:30;100580.69;;;55.55;0.00
77047;BME280;65977;56.380;44.022;2023-04-21T06:48:57;100585.13;;;55.76;0.00
77047;BME280;65977;56.380;44.022;2023-04-21T06:51:24;100583.38;;;55.82;0.00
77047;BME280;65977;56.380;44.022;2023-04-21T06:53:51;100562.28;;;55.83;0.00
77047;BME280;65977;56.380;44.022;2023-04-21T06:56:18;100573.47;;;55.90;0.00
77047;BME280;65977;56.380;44.022;2023-04-21T06:58:46;100568.75;;;55.83;0.00
77047;BME280;65977;56.380;44.022;2023-04-21T07:01:13;100569.97;;;56.02;0.00
77047;BME280;65977;56.380;44.022;2023-04-21T07:03:41;100567.63;;;56.33;0.00
77047;BME280;65977;56.380;44.022;2023-04-21T07:06:08;100566.34;;;56.70;0.00
77047;BME280;65977;56.380;44.022;2023-04-21T07:08:35;100569.50;;;56.88;0.00
77047;BME280;65977;56.380;44.022;2023-04-21T07:11:02;100567.63;;;56.97;0.00
77047;BME280;65977;56.380;44.022;2023-04-21T07:13:30;100564.75;;;57.14;0.00
77047;BME280;65977;56.380;44.022;2023-04-21T07:15:57;100563.72;;;57.36;0.00
77047;BME280;65977;56.380;44.022;2023-04-21T07:18:24;100569.50;;;57.61;0.00
77047;BME280;65977;56.380;44.022;2023-04-21T07:20:51;100560.91;;;57.90;0.00
77047;BME280;65977;56.380;44.022;2023-04-21T07:23:18;100560.72;;;58.22;0.00
77047;BME280;65977;56.380;44.022;2023-04-21T07:25:45;100560.81;;;58.32;0.00
77047;BME280;65977;56.380;44.022;2023-04-21T07:28:13;100556.94;;;58.38;0.00
77047;BME280;65977;56.380;44.022;2023-04-21T07:30:41;100549.75;;;58.59;0.00
77047;BME280;65977;56.380;44.022;2023-04-21T07:33:09;100560.63;;;58.85;0.00
77047;BME280;65977;56.380;44.022;2023-04-21T07:35:36;100549.16;;;58.98;0.00
77047;BME280;65977;56.380;44.022;2023-04-21T07:38:03;100561.53;;;58.82;0.00
77047;BME280;65977;56.380;44.022;2023-04-21T07:40:30;100553.81;;;57.69;0.00
77047;BME280;65977;56.380;44.022;2023-04-21T07:42:57;100552.72;;;57.22;0.00
77047;BME280;65977;56.380;44.022;2023-04-21T07:45:25;100544.91;;;55.97;0.00
77047;BME280;65977;56.380;44.022;2023-04-21T07:47:52;100522.00;;;54.90;0.00
77047;BME280;65977;56.380;44.022;2023-04-21T07:50:19;100532.63;;;53.08;0.00
77047;BME280;65977;56.380;44.022;2023-04-21T07:52:46;100538.28;;;52.05;0.00
77047;BME280;65977;56.380;44.022;2023-04-21T07:55:13;100534.56;;;50.47;0.00
77047;BME280;65977;56.380;44.022;2023-04-21T07:57:40;100528.22;;;48.11;0.82
77047;BME280;65977;56.380;44.022;2023-04-21T08:00:08;100527.88;;;45.33;1.71
77047;BME280;65977;56.380;44.022;2023-04-21T08:02:36;100517.25;;;42.73;2.70
77047;BME280;65977;56.380;44.022;2023-04-21T08:05:04;100508.84;;;40.46;3.05
77047;BME280;65977;56.380;44.022;2023-04-21T08:07:31;100524.25;;;38.71;3.89
77047;BME280;65977;56.380;44.022;2023-04-21T08:09:59;100529.47;;;37.12;4.60
77047;BME280;65977;56.380;44.022;2023-04-21T08:12:26;100529.03;;;35.81;5.38
77047;BME280;65977;56.380;44.022;2023-04-21T08:14:53;100514.47;;;34.72;6.04
77047;BME280;65977;56.380;44.022;2023-04-21T08:17:23;100516.31;;;33.85;6.35
77047;BME280;65977;56.380;44.022;2023-04-21T08:19:51;100518.63;;;33.14;6.37
77047;BME280;65977;56.380;44.022;2023-04-21T08:22:18;100522.88;;;32.51;6.57
77047;BME280;65977;56.380;44.022;2023-04-21T08:24:45;100516.06;;;32.28;6.98
77047;BME280;65977;56.380;44.022;2023-04-21T08:27:12;100493.06;;;32.55;6.61
77047;BME280;65977;56.380;44.022;2023-04-21T08:29:39;100502.72;;;34.66;6.16
77047;BME280;65977;56.380;44.022;2023-04-21T08:32:06;100501.88;;;37.25;4.66
77047;BME280;65977;56.380;44.022;2023-04-21T08:34:33;100504.34;;;40.24;4.01
77047;BME280;65977;56.380;44.022;2023-04-21T08:37:01;100504.63;;;43.12;3.14
77047;BME280;65977;56.380;44.022;2023-04-21T08:39:28;100507.63;;;45.74;2.02
77047;BME280;65977;56.380;44.022;2023-04-21T08:41:56;100495.63;;;47.96;1.34
77047;BME280;65977;56.380;44.022;2023-04-21T08:44:25;100500.22;;;49.71;0.67
77047;BME280;65977;56.380;44.022;2023-04-21T08:46:54;100500.31;;;51.19;0.65
77047;BME280;65977;56.380;44.022;2023-04-21T08:49:22;100496.47;;;52.48;0.00
77047;BME280;65977;56.380;44.022;2023-04-21T08:51:50;100498.97;;;53.58;0.00
77047;BME280;65977;56.380;44.022;2023-04-21T08:54:17;100495.69;;;54.43;0.00
77047;BME280;65977;56.380;44.022;2023-04-21T08:56:44;100490.34;;;55.14;0.00
77047;BME280;65977;56.380;44.022;2023-04-21T08:59:11;100479.84;;;55.70;0.00
77047;BME280;65977;56.380;44.022;2023-04-21T09:04:56;100480.09;;;56.76;0.00
77047;BME280;65977;56.380;44.022;2023-04-21T09:07:31;100478.16;;;57.02;0.00
77047;BME280;65977;56.380;44.022;2023-04-21T09:09:59;100473.22;;;57.19;0.00
77047;BME280;65977;56.380;44.022;2023-04-21T09:12:27;100478.16;;;57.31;0.00
77047;BME280;65977;56.380;44.022;2023-04-21T09:14:54;100469.09;;;57.48;0.00
77047;BME280;65977;56.380;44.022;2023-04-21T09:17:27;100467.41;;;57.76;0.00
77047;BME280;65977;56.380;44.022;2023-04-21T09:20:14;100471.84;;;58.27;0.00
77047;BME280;65977;56.380;44.022;2023-04-21T09:22:42;100462.78;;;58.88;0.00
77047;BME280;65977;56.380;44.022;2023-04-21T09:25:14;100459.47;;;59.33;0.00
77047;BME280;65977;56.380;44.022;2023-04-21T09:27:42;100460.59;;;59.67;0.00
77047;BME280;65977;56.380;44.022;2023-04-21T09:30:09;100447.53;;;59.87;0.00
77047;BME280;65977;56.380;44.022;2023-04-21T09:32:40;100448.75;;;59.77;0.00
77047;BME280;65977;56.380;44.022;2023-04-21T09:35:10;100458.97;;;59.57;0.00
77047;BME280;65977;56.380;44.022;2023-04-21T09:37:38;100442.31;;;59.55;0.00
77047;BME280;65977;56.380;44.022;2023-04-21T09:40:06;100447.94;;;59.68;0.00
77047;BME280;65977;56.380;44.022;2023-04-21T09:42:34;100456.53;;;59.46;0.00
77047;BME280;65977;56.380;44.022;2023-04-21T09:45:07;100453.22;;;59.47;0.00
77047;BME280;65977;56.380;44.022;2023-04-21T09:47:57;100452.59;;;59.53;0.00
77047;BME280;65977;56.380;44.022;2023-04-21T09:50:25;100440.75;;;59.63;0.00
77047;BME280;65977;56.380;44.022;2023-04-21T09:53:14;100441.94;;;59.75;0.00
77047;BME280;65977;56.380;44.022;2023-04-21T09:55:45;100445.72;;;59.72;0.00
77047;BME280;65977;56.380;44.022;2023-04-21T09:58:15;100450.19;;;59.51;0.00
77047;BME280;65977;56.380;44.022;2023-04-21T10:00:46;100455.03;;;59.11;0.00
77047;BME280;65977;56.380;44.022;2023-04-21T10:03:15;100441.09;;;58.57;0.00
77047;BME280;65977;56.380;44.022;2023-04-21T10:05:44;100443.50;;;58.11;0.00
77047;BME280;65977;56.380;44.022;2023-04-21T10:08:11;100435.63;;;57.78;0.00
77047;BME280;65977;56.380;44.022;2023-04-21T10:10:39;100433.16;;;57.54;0.00
77047;BME280;65977;56.380;44.022;2023-04-21T10:13:12;100416.91;;;57.01;0.00
77047;BME280;65977;56.380;44.022;2023-04-21T10:15:41;100412.00;;;56.73;0.00
77047;BME280;65977;56.380;44.022;2023-04-21T10:18:21;100424.47;;;56.46;0.00
77047;BME280;65977;56.380;44.022;2023-04-21T10:20:52;100414.66;;;56.35;0.00
77047;BME280;65977;56.380;44.022;2023-04-21T10:23:41;100410.47;;;56.23;0.00
77047;BME280;65977;56.380;44.022;2023-04-21T10:26:15;100406.47;;;56.21;0.00
77047;BME280;65977;56.380;44.022;2023-04-21T10:28:55;100400.47;;;56.03;0.00
77047;BME280;65977;56.380;44.022;2023-04-21T10:31:39;100353.94;;;55.64;0.00
77047;BME280;65977;56.380;44.022;2023-04-21T10:34:27;100395.47;;;55.90;0.00
77047;BME280;65977;56.380;44.022;2023-04-21T10:39:34;100381.59;;;55.60;0.00
77047;BME280;65977;56.380;44.022;2023-04-21T10:44:43;100386.91;;;55.42;0.00
77047;BME280;65977;56.380;44.022;2023-04-21T10:47:11;100376.28;;;55.26;0.00
77047;BME280;65977;56.380;44.022;2023-04-21T10:49:39;100369.47;;;55.24;0.00
77047;BME280;65977;56.380;44.022;2023-04-21T10:52:07;100363.75;;;54.88;0.00
77047;BME280;65977;56.380;44.022;2023-04-21T10:54:36;100372.25;;;54.45;0.00
77047;BME280;65977;56.380;44.022;2023-04-21T10:57:08;100371.84;;;54.00;0.00
77047;BME280;65977;56.380;44.022;2023-04-21T10:59:38;100371.16;;;53.66;0.00
77047;BME280;65977;56.380;44.022;2023-04-21T11:02:06;100367.66;;;53.59;0.00
77047;BME280;65977;56.380;44.022;2023-04-21T11:04:33;100369.63;;;53.62;0.00
77047;BME280;65977;56.380;44.022;2023-04-21T11:07:10;100370.75;;;53.68;0.00
77047;BME280;65977;56.380;44.022;2023-04-21T11:09:39;100366.63;;;53.72;0.00
77047;BME280;65977;56.380;44.022;2023-04-21T11:12:14;100360.06;;;53.79;0.00
77047;BME280;65977;56.380;44.022;2023-04-21T11:14:44;100354.59;;;53.91;0.00
77047;BME280;65977;56.380;44.022;2023-04-21T11:17:18;100353.34;;;53.69;0.00
77047;BME280;65977;56.380;44.022;2023-04-21T11:19:48;100349.16;;;53.50;0.00
77047;BME280;65977;56.380;44.022;2023-04-21T11:22:19;100358.31;;;53.35;0.00
77047;BME280;65977;56.380;44.022;2023-04-21T11:24:48;100348.84;;;53.15;0.00
77047;BME280;65977;56.380;44.022;2023-04-21T11:27:16;100349.56;;;52.92;0.00
77047;BME280;65977;56.380;44.022;2023-04-21T11:29:44;100341.47;;;52.60;0.00
77047;BME280;65977;56.380;44.022;2023-04-21T11:32:14;100342.47;;;51.95;0.00
77047;BME280;65977;56.380;44.022;2023-04-21T11:34:42;100331.56;;;51.46;0.00
77047;BME280;65977;56.380;44.022;2023-04-21T11:37:13;100323.88;;;50.67;0.00
77047;BME280;65977;56.380;44.022;2023-04-21T11:39:40;100331.44;;;49.28;0.35
77047;BME280;65977;56.380;44.022;2023-04-21T11:42:09;100318.47;;;47.39;0.53
77047;BME280;65977;56.380;44.022;2023-04-21T11:44:41;100314.25;;;45.43;1.31
77047;BME280;65977;56.380;44.022;2023-04-21T11:47:27;100310.19;;;43.38;1.95
77047;BME280;65977;56.380;44.022;2023-04-21T11:49:56;100311.28;;;41.49;2.62
77047;BME280;65977;56.380;44.022;2023-04-21T11:52:27;100314.34;;;39.86;3.43
77047;BME280;65977;56.380;44.022;2023-04-21T11:57:27;100311.41;;;36.64;4.05
77047;BME280;65977;56.380;44.022;2023-04-21T12:00:05;100309.31;;;35.28;5.22
77047;BME280;65977;56.380;44.022;2023-04-21T12:02:33;100301.50;;;34.18;5.26
77047;BME280;65977;56.380;44.022;2023-04-21T12:05:08;100304.97;;;33.14;6.15
77047;BME280;65977;56.380;44.022;2023-04-21T12:07:37;100300.19;;;32.32;6.33
77047;BME280;65977;56.380;44.022;2023-04-21T12:10:16;100299.56;;;31.56;6.68
77047;BME280;65977;56.380;44.022;2023-04-21T12:12:46;100304.44;;;30.98;7.03
77047;BME280;65977;56.380;44.022;2023-04-21T12:15:21;100290.88;;;30.36;7.08
77047;BME280;65977;56.380;44.022;2023-04-21T12:17:52;100299.28;;;29.78;7.32
77047;BME280;65977;56.380;44.022;2023-04-21T12:20:22;100296.56;;;29.14;7.42
77047;BME280;65977;56.380;44.022;2023-04-21T12:22:50;100290.09;;;28.62;7.98
77047;BME280;65977;56.380;44.022;2023-04-21T12:25:18;100292.94;;;28.29;8.57
77047;BME280;65977;56.380;44.022;2023-04-21T12:27:52;100281.81;;;27.92;8.24
77047;BME280;65977;56.380;44.022;2023-04-21T12:30:20;100276.84;;;27.67;8.57
77047;BME280;65977;56.380;44.022;2023-04-21T12:32:48;100280.00;;;27.42;8.63
77047;BME280;65977;56.380;44.022;2023-04-21T12:35:15;100283.34;;;27.16;8.94
77047;BME280;65977;56.380;44.022;2023-04-21T12:37:43;100280.19;;;26.91;9.07
77047;BME280;65977;56.380;44.022;2023-04-21T12:40:11;100269.69;;;26.66;9.26
77047;BME280;65977;56.380;44.022;2023-04-21T12:42:38;100269.88;;;26.48;9.74
77047;BME280;65977;56.380;44.022;2023-04-21T12:45:06;100268.84;;;26.38;9.66
77047;BME280;65977;56.380;44.022;2023-04-21T12:47:35;100272.41;;;26.26;9.73
77047;BME280;65977;56.380;44.022;2023-04-21T12:50:03;100265.38;;;26.14;9.63
77047;BME280;65977;56.380;44.022;2023-04-21T12:52:30;100262.44;;;26.04;9.85
77047;BME280;65977;56.380;44.022;2023-04-21T12:54:57;100266.63;;;25.83;10.02
77047;BME280;65977;56.380;44.022;2023-04-21T12:57:24;100259.31;;;25.60;10.00
77047;BME280;65977;56.380;44.022;2023-04-21T12:59:51;100246.25;;;25.34;10.11
77047;BME280;65977;56.380;44.022;2023-04-21T13:02:18;100259.88;;;25.16;10.28
77047;BME280;65977;56.380;44.022;2023-04-21T13:04:46;100258.91;;;24.99;10.16